KCGI/CGI METAR and TAF weather

Enter ICAO airport designator
Station Type Date Time Source
KCGI METAR 2019/04/19 21:53 UTC NOAA

KCGI 192153Z 35014G27KT 10SM OVC033 10/03 A2972 RMK AO2 PK WND 34033/2058 SLP064 T01000033


Station Type Date Time Source
KCGI Decoded METAR 2019/04/19 21:53 UTC NOAA

CAPE GIRARDEAU REGIONAL, MO, United States (KCGI) 37-14N 089-35W 102M
Apr 19, 2019 - 05:53 PM EDT / 2019.04.19 2153 UTC
Wind: from the N (350 degrees) at 16 MPH (14 KT) gusting to 31 MPH (27 KT):0
Visibility: 10 mile(s):0
Sky conditions: overcast
Temperature: 50.0 F (10.0 C)
Dew Point: 37.9 F (3.3 C)
Relative Humidity: 63%
Pressure (altimeter): 29.72 in. Hg (1006 hPa)
ob: KCGI 192153Z 35014G27KT 10SM OVC033 10/03 A2972 RMK AO2 PK WND 34033/2058 SLP064 T01000033
cycle: 22

Station Type Date Time Source
KCGI TAF 2019/04/19 18:39 UTC NOAA

TAF KCGI 191736Z 1918/2018 35019G28KT P6SM VCSH OVC021
FM192200 34018G27KT P6SM OVC045
FM200300 32013G21KT P6SM SCT050 BKN150 WS020/00045KT
FM200700 31013G21KT P6SM FEW250
FM201400 33020G30KT P6SM SKC

Example: see airport list